createdAt,value
2023-07-08T00:00:51.991Z,5.40
2023-07-08T00:03:45.279Z,5.50
2023-07-08T00:06:23.232Z,5.60
2023-07-08T00:08:56.901Z,6.00
2023-07-08T00:11:31.382Z,6.00
2023-07-08T00:14:04.606Z,6.20
2023-07-08T00:16:38.195Z,6.00
2023-07-08T00:19:18.759Z,6.30
2023-07-08T00:24:23.343Z,6.00
2023-07-08T00:26:56.468Z,5.80
2023-07-08T00:29:29.792Z,5.80
2023-07-08T00:32:03.085Z,6.20
2023-07-08T00:34:36.524Z,5.70
2023-07-08T00:37:11.555Z,6.30
2023-07-08T00:39:44.738Z,5.70
2023-07-08T00:42:24.189Z,6.10
2023-07-08T00:44:57.897Z,6.10
2023-07-08T00:47:31.044Z,6.60
2023-07-08T00:50:12.672Z,7.00
2023-07-08T00:52:48.939Z,7.20
2023-07-08T00:55:22.162Z,6.10
2023-07-08T00:57:55.453Z,6.00
2023-07-08T01:00:29.281Z,6.60
2023-07-08T01:03:02.507Z,6.70
2023-07-08T01:05:40.027Z,6.60
2023-07-08T01:08:13.205Z,6.20
2023-07-08T01:10:53.816Z,6.30
2023-07-08T01:13:27.277Z,6.50
2023-07-08T01:16:02.436Z,6.30
2023-07-08T01:18:37.213Z,6.60
2023-07-08T01:21:35.699Z,6.30
2023-07-08T01:24:12.653Z,6.40
2023-07-08T01:26:48.324Z,6.50
2023-07-08T01:29:22.025Z,6.50
2023-07-08T01:31:57.189Z,6.80
2023-07-08T01:34:30.428Z,6.40
2023-07-08T01:37:06.017Z,6.20
2023-07-08T01:39:39.107Z,6.40
2023-07-08T01:42:12.341Z,6.40
2023-07-08T01:44:45.404Z,6.60
2023-07-08T01:47:22.817Z,5.90
2023-07-08T01:49:56.018Z,6.60
2023-07-08T01:52:29.256Z,5.80
2023-07-08T01:55:02.500Z,6.00
2023-07-08T01:57:35.686Z,5.80
2023-07-08T02:00:11.277Z,5.70
2023-07-08T02:02:47.560Z,6.20
2023-07-08T02:05:21.231Z,6.10
2023-07-08T02:07:54.363Z,6.80
2023-07-08T02:10:27.873Z,6.40
2023-07-08T02:13:01.087Z,7.00
2023-07-08T02:15:34.658Z,6.20
2023-07-08T02:18:07.977Z,5.70
2023-07-08T02:20:41.130Z,6.20
2023-07-08T02:23:14.496Z,6.70
2023-07-08T02:25:54.535Z,6.50
2023-07-08T02:28:27.976Z,6.30
2023-07-08T02:31:06.047Z,6.80
2023-07-08T02:33:39.400Z,6.10
2023-07-08T02:36:12.491Z,6.20
2023-07-08T02:38:45.610Z,6.10
2023-07-08T02:41:19.532Z,6.60
2023-07-08T02:43:52.943Z,6.30
2023-07-08T02:46:26.417Z,6.50
2023-07-08T02:48:59.717Z,7.30
2023-07-08T02:51:33.038Z,7.90
2023-07-08T02:54:06.247Z,6.50
2023-07-08T02:56:39.475Z,6.90
2023-07-08T02:59:12.685Z,6.40
2023-07-08T03:01:48.285Z,6.60
2023-07-08T03:04:23.252Z,6.40
2023-07-08T03:06:56.917Z,6.90
2023-07-08T03:09:30.251Z,6.10
2023-07-08T03:12:03.437Z,6.50
2023-07-08T03:14:38.252Z,6.20
2023-07-08T03:17:11.964Z,6.30
2023-07-08T03:19:46.300Z,7.10
2023-07-08T03:22:19.400Z,6.40
2023-07-08T03:24:52.633Z,6.80
2023-07-08T03:27:27.744Z,6.30
2023-07-08T03:30:01.756Z,6.60
2023-07-08T03:32:36.363Z,5.90
2023-07-08T03:35:12.431Z,6.50
2023-07-08T03:37:45.747Z,6.20
2023-07-08T03:40:19.173Z,6.00
2023-07-08T03:42:52.338Z,6.50
2023-07-08T03:45:25.674Z,6.10
2023-07-08T03:47:59.159Z,6.60
2023-07-08T03:50:32.784Z,6.40
2023-07-08T03:53:06.041Z,10.20
2023-07-08T03:55:39.383Z,6.70
2023-07-08T03:58:12.929Z,6.40
2023-07-08T04:00:46.284Z,6.30
2023-07-08T04:03:20.611Z,6.60
2023-07-08T04:05:54.024Z,5.60
2023-07-08T04:08:27.600Z,6.10
2023-07-08T04:11:01.044Z,5.50
2023-07-08T04:13:34.729Z,6.10
2023-07-08T04:16:12.604Z,6.50
2023-07-08T04:18:45.765Z,6.50
2023-07-08T04:21:23.367Z,6.00
2023-07-08T04:23:56.891Z,6.10
2023-07-08T04:26:30.292Z,5.40
2023-07-08T04:29:03.589Z,5.90
2023-07-08T04:31:37.178Z,6.40
2023-07-08T04:34:10.987Z,6.70
2023-07-08T04:36:44.332Z,6.20
2023-07-08T04:39:17.668Z,6.10
2023-07-08T04:41:52.218Z,6.00
2023-07-08T04:44:25.615Z,6.60
2023-07-08T04:47:00.963Z,5.30
2023-07-08T04:49:35.151Z,6.10
2023-07-08T04:52:09.578Z,5.90
2023-07-08T04:54:42.874Z,5.50
2023-07-08T04:57:17.921Z,5.20
2023-07-08T04:59:51.525Z,4.80
2023-07-08T05:02:24.724Z,4.80
2023-07-08T05:04:57.855Z,5.50
2023-07-08T05:07:31.097Z,4.80
2023-07-08T05:10:05.107Z,4.80
2023-07-08T05:12:38.324Z,5.00
2023-07-08T05:15:13.354Z,4.30
2023-07-08T05:17:47.038Z,4.20
2023-07-08T05:20:20.655Z,4.60
2023-07-08T05:22:54.057Z,4.30
2023-07-08T05:25:28.890Z,4.20
2023-07-08T05:28:02.410Z,4.50
2023-07-08T05:30:35.870Z,4.30
2023-07-08T05:33:09.418Z,4.50
2023-07-08T05:35:42.580Z,4.20
2023-07-08T05:38:15.720Z,4.60
2023-07-08T05:40:52.585Z,4.70
2023-07-08T05:43:25.932Z,4.20
2023-07-08T05:46:11.281Z,5.00
2023-07-08T05:48:46.137Z,4.40
2023-07-08T05:51:19.425Z,4.20
2023-07-08T05:53:52.640Z,5.00
2023-07-08T05:56:25.820Z,4.70
2023-07-08T05:58:59.103Z,4.70
2023-07-08T06:01:32.466Z,4.20
2023-07-08T06:04:06.062Z,4.80
2023-07-08T06:06:39.347Z,4.50
2023-07-08T06:09:12.488Z,4.50
2023-07-08T06:11:45.805Z,4.20
2023-07-08T06:14:19.063Z,4.50
2023-07-08T06:16:52.546Z,4.20
2023-07-08T06:19:26.087Z,4.60
2023-07-08T06:22:13.565Z,4.20
2023-07-08T06:24:52.839Z,4.20
2023-07-08T06:27:26.350Z,4.50
2023-07-08T06:30:00.701Z,4.30
2023-07-08T06:32:33.786Z,4.80
2023-07-08T06:35:07.888Z,4.90
2023-07-08T06:37:41.083Z,4.30
2023-07-08T06:40:16.232Z,5.10
2023-07-08T06:42:49.646Z,4.80
2023-07-08T06:45:33.930Z,4.70
2023-07-08T06:48:07.670Z,5.20
2023-07-08T06:50:44.108Z,4.60
2023-07-08T06:53:17.494Z,4.50
2023-07-08T06:55:51.902Z,5.40
2023-07-08T06:58:25.042Z,4.80
2023-07-08T07:00:58.729Z,4.80
2023-07-08T07:03:32.178Z,4.30
2023-07-08T07:06:05.546Z,4.90
2023-07-08T07:08:38.737Z,4.60
2023-07-08T07:11:12.009Z,3.90
2023-07-08T07:13:45.379Z,4.30
2023-07-08T07:16:18.597Z,4.20
2023-07-08T07:18:53.213Z,3.80
2023-07-08T07:21:26.563Z,3.60
2023-07-08T07:23:59.732Z,3.90
2023-07-08T07:26:33.812Z,3.20
2023-07-08T07:29:06.942Z,3.80
2023-07-08T07:31:41.256Z,3.20
2023-07-08T07:34:15.629Z,3.50
2023-07-08T07:36:48.977Z,2.80
2023-07-08T07:39:22.071Z,5.70
2023-07-08T07:41:55.227Z,3.20
2023-07-08T07:44:28.486Z,3.30
2023-07-08T07:47:01.820Z,3.20
2023-07-08T07:49:35.103Z,3.00
2023-07-08T07:52:12.128Z,2.90
2023-07-08T07:54:45.864Z,2.80
2023-07-08T07:57:19.204Z,2.80
2023-07-08T07:59:52.967Z,2.70
2023-07-08T08:02:26.423Z,2.90
2023-07-08T08:04:59.681Z,2.70
2023-07-08T08:07:32.869Z,3.00
2023-07-08T08:10:06.575Z,2.60
2023-07-08T08:12:52.565Z,2.80
2023-07-08T08:15:27.691Z,2.70
2023-07-08T08:18:00.984Z,2.70
2023-07-08T08:20:34.788Z,2.50
2023-07-08T08:23:09.041Z,2.10
2023-07-08T08:25:42.317Z,2.40
2023-07-08T08:28:15.577Z,2.00
2023-07-08T08:30:52.496Z,2.30
2023-07-08T08:33:25.954Z,2.40
2023-07-08T08:35:59.455Z,2.40
2023-07-08T08:38:32.933Z,2.40
2023-07-08T08:41:16.774Z,1.90
2023-07-08T08:43:52.791Z,2.10
2023-07-08T08:46:34.643Z,2.40
2023-07-08T08:49:23.889Z,2.60
2023-07-08T08:52:02.872Z,2.40
2023-07-08T08:54:36.249Z,2.00
2023-07-08T08:57:29.765Z,2.50
2023-07-08T09:00:04.590Z,2.30
2023-07-08T09:02:44.008Z,2.30
2023-07-08T09:05:18.028Z,2.00
2023-07-08T09:08:15.420Z,2.20
2023-07-08T09:10:57.735Z,1.90
2023-07-08T09:13:34.317Z,1.80
2023-07-08T09:16:18.972Z,2.20
2023-07-08T09:19:06.914Z,2.00
2023-07-08T09:21:52.097Z,2.40
2023-07-08T09:24:33.717Z,2.20
2023-07-08T09:27:07.653Z,2.40
2023-07-08T09:29:41.819Z,2.10
2023-07-08T09:32:23.666Z,2.70
2023-07-08T09:35:04.328Z,2.40
2023-07-08T09:37:40.556Z,2.60
2023-07-08T09:40:22.727Z,3.70
2023-07-08T09:43:01.499Z,2.10
2023-07-08T09:45:45.183Z,3.20
2023-07-08T09:48:27.260Z,2.20
2023-07-08T09:51:02.443Z,2.60
2023-07-08T09:53:37.519Z,2.20
2023-07-08T09:56:12.773Z,2.30
2023-07-08T09:58:50.549Z,2.20
2023-07-08T10:01:30.365Z,2.20
2023-07-08T10:04:06.113Z,2.20
2023-07-08T10:06:40.009Z,2.20
2023-07-08T10:09:20.159Z,2.30
2023-07-08T10:11:58.783Z,1.90
2023-07-08T10:14:37.573Z,2.50
2023-07-08T10:17:16.032Z,2.10
2023-07-08T10:19:49.324Z,2.20
2023-07-08T10:22:43.733Z,2.10
2023-07-08T10:25:31.502Z,2.20
2023-07-08T10:28:22.754Z,2.30
2023-07-08T10:31:13.332Z,2.00
2023-07-08T10:34:06.242Z,2.30
2023-07-08T10:36:52.639Z,2.10
2023-07-08T10:40:04.105Z,2.20
2023-07-08T10:43:02.691Z,2.10
2023-07-08T10:45:41.801Z,2.00
2023-07-08T10:48:43.344Z,2.40
2023-07-08T10:51:28.983Z,2.40
2023-07-08T10:54:35.837Z,1.90
2023-07-08T10:57:23.021Z,2.40
2023-07-08T11:00:06.027Z,2.10
2023-07-08T11:03:21.538Z,2.10
2023-07-08T11:06:02.782Z,2.00
2023-07-08T11:08:42.130Z,2.10
2023-07-08T11:11:26.844Z,2.10
2023-07-08T11:14:06.341Z,1.90
2023-07-08T11:16:43.886Z,2.50
2023-07-08T11:19:24.160Z,2.90
2023-07-08T11:22:01.890Z,2.00
2023-07-08T11:24:42.091Z,2.00
2023-07-08T11:27:25.561Z,2.50
2023-07-08T11:30:02.303Z,2.20
2023-07-08T11:32:38.233Z,2.00
2023-07-08T11:35:22.421Z,2.30
2023-07-08T11:37:56.350Z,2.10
2023-07-08T11:40:29.712Z,2.00
2023-07-08T11:43:08.782Z,2.00
2023-07-08T11:45:45.790Z,2.50
2023-07-08T11:48:23.890Z,2.00
2023-07-08T11:50:59.431Z,2.10
2023-07-08T11:53:49.683Z,2.00
2023-07-08T11:56:28.812Z,2.00
2023-07-08T11:59:21.168Z,2.20
2023-07-08T12:02:04.522Z,2.10
2023-07-08T12:04:54.917Z,2.50
2023-07-08T12:07:39.321Z,2.10
2023-07-08T12:10:20.803Z,2.20
2023-07-08T12:12:53.973Z,2.10
2023-07-08T12:15:30.811Z,2.20
2023-07-08T12:18:09.298Z,1.90
2023-07-08T12:20:45.891Z,2.10
2023-07-08T12:23:23.377Z,1.80
2023-07-08T12:25:58.905Z,2.10
2023-07-08T12:28:32.193Z,2.50
2023-07-08T12:31:10.876Z,2.40
2023-07-08T12:33:44.321Z,2.20
2023-07-08T12:36:23.623Z,2.20
2023-07-08T12:38:57.805Z,2.10
2023-07-08T12:41:34.474Z,2.40
2023-07-08T12:44:19.861Z,1.90
2023-07-08T12:46:55.442Z,2.10
2023-07-08T12:49:30.708Z,2.30
2023-07-08T12:52:04.130Z,2.40
2023-07-08T12:54:37.441Z,2.20
2023-07-08T12:57:12.844Z,2.20
2023-07-08T12:59:46.355Z,2.00
2023-07-08T13:02:24.483Z,2.50
2023-07-08T13:05:02.227Z,2.20
2023-07-08T13:07:41.640Z,2.30
2023-07-08T13:10:25.371Z,2.50
2023-07-08T13:13:03.153Z,2.30
2023-07-08T13:15:41.744Z,2.40
2023-07-08T13:18:20.571Z,2.20
2023-07-08T13:20:57.418Z,2.30
2023-07-08T13:23:31.403Z,2.30
2023-07-08T13:26:14.273Z,2.30
2023-07-08T13:28:48.091Z,2.20
2023-07-08T13:31:25.826Z,2.40
2023-07-08T13:33:59.888Z,2.60
2023-07-08T13:36:39.902Z,2.40
2023-07-08T13:39:22.082Z,2.40
2023-07-08T13:41:55.839Z,2.40
2023-07-08T13:44:29.402Z,2.30
2023-07-08T13:47:07.156Z,2.20
2023-07-08T13:52:25.221Z,2.40
2023-07-08T13:55:04.080Z,2.50
2023-07-08T13:57:41.947Z,2.80
2023-07-08T14:00:17.504Z,2.50
2023-07-08T14:02:50.889Z,2.40
2023-07-08T14:05:24.348Z,2.50
2023-07-08T14:07:57.668Z,2.50
2023-07-08T14:10:30.998Z,2.60
2023-07-08T14:13:04.558Z,2.60
2023-07-08T14:15:38.072Z,2.80
2023-07-08T14:18:14.128Z,2.60
2023-07-08T14:20:47.408Z,2.30
2023-07-08T14:23:21.945Z,2.70
2023-07-08T14:25:55.328Z,2.50
2023-07-08T14:28:28.575Z,2.80
2023-07-08T14:31:02.814Z,2.70
2023-07-08T14:33:36.703Z,2.60
2023-07-08T14:36:13.299Z,2.20
2023-07-08T14:38:46.642Z,2.50
2023-07-08T14:41:20.196Z,2.40
2023-07-08T14:43:54.100Z,2.50
2023-07-08T14:46:27.678Z,2.70
2023-07-08T14:49:01.104Z,2.40
2023-07-08T14:51:34.387Z,2.30
2023-07-08T14:54:07.885Z,2.30
2023-07-08T14:56:42.008Z,2.40
2023-07-08T14:59:20.376Z,2.40
2023-07-08T15:01:55.935Z,2.40
2023-07-08T15:04:29.556Z,2.60
2023-07-08T15:07:03.938Z,2.10
2023-07-08T15:09:37.223Z,2.10
2023-07-08T15:12:15.228Z,2.10
2023-07-08T15:17:21.026Z,2.30
2023-07-08T15:19:55.279Z,2.20
2023-07-08T15:22:30.369Z,2.10
2023-07-08T15:25:03.887Z,2.10
2023-07-08T15:27:37.505Z,2.40
2023-07-08T15:30:20.765Z,2.40
2023-07-08T15:32:54.662Z,2.20
2023-07-08T15:35:33.829Z,2.10
2023-07-08T15:38:07.343Z,2.00
2023-07-08T15:40:42.723Z,2.30
2023-07-08T15:43:19.074Z,2.30
2023-07-08T15:45:52.303Z,1.70
2023-07-08T15:48:25.738Z,2.00
2023-07-08T15:50:59.517Z,2.20
2023-07-08T15:53:34.003Z,1.90
2023-07-08T15:56:07.693Z,2.50
2023-07-08T15:58:41.807Z,2.20
2023-07-08T16:01:21.745Z,2.00
2023-07-08T16:03:55.392Z,2.20
2023-07-08T16:06:30.118Z,2.20
2023-07-08T16:09:04.926Z,1.90
2023-07-08T16:11:38.338Z,2.00
2023-07-08T16:14:14.034Z,2.40
2023-07-08T16:16:48.558Z,2.10
2023-07-08T16:19:21.867Z,2.30
2023-07-08T16:21:55.179Z,2.90
2023-07-08T16:24:28.716Z,2.80
2023-07-08T16:27:02.069Z,1.90
2023-07-08T16:29:36.724Z,2.20
2023-07-08T16:32:15.436Z,2.30
2023-07-08T16:34:48.939Z,2.20
2023-07-08T16:37:22.432Z,2.40
2023-07-08T16:39:57.102Z,2.50
2023-07-08T16:42:30.531Z,2.40
2023-07-08T16:45:04.924Z,3.00
2023-07-08T16:47:38.526Z,2.30
2023-07-08T16:50:13.569Z,1.90
2023-07-08T16:52:47.191Z,2.30
2023-07-08T16:55:24.548Z,2.20
2023-07-08T16:57:58.084Z,2.00
2023-07-08T17:00:31.943Z,2.40
2023-07-08T17:03:06.394Z,2.20
2023-07-08T17:05:41.298Z,2.10
2023-07-08T17:08:16.887Z,2.30
2023-07-08T17:10:50.186Z,2.10
2023-07-08T17:13:23.564Z,2.30
2023-07-08T17:15:57.238Z,2.20
2023-07-08T17:18:30.781Z,2.50
2023-07-08T17:21:05.597Z,2.00
2023-07-08T17:23:39.198Z,2.50
2023-07-08T17:26:13.042Z,2.30
2023-07-08T17:28:49.859Z,2.20
2023-07-08T17:31:34.527Z,2.20
2023-07-08T17:34:24.492Z,2.20
2023-07-08T17:36:58.270Z,2.50
2023-07-08T17:39:31.666Z,2.20
2023-07-08T17:42:05.356Z,2.40
2023-07-08T17:44:38.822Z,2.20
2023-07-08T17:47:16.971Z,2.20
2023-07-08T17:49:50.456Z,2.10
2023-07-08T17:52:24.020Z,2.50
2023-07-08T17:54:57.469Z,3.00
2023-07-08T17:57:30.794Z,2.60
2023-07-08T18:00:04.453Z,2.60
2023-07-08T18:02:46.747Z,2.30
2023-07-08T18:05:23.482Z,2.40
2023-07-08T18:07:57.741Z,2.80
2023-07-08T18:10:34.029Z,2.50
2023-07-08T18:13:23.490Z,2.90
2023-07-08T18:15:57.615Z,2.60
2023-07-08T18:18:31.097Z,2.90
2023-07-08T18:21:04.617Z,2.40
2023-07-08T18:23:38.219Z,2.40
2023-07-08T18:26:18.973Z,2.40
2023-07-08T18:28:52.917Z,2.60
2023-07-08T18:31:34.773Z,2.50
2023-07-08T18:34:09.735Z,2.70
2023-07-08T18:36:43.144Z,2.80
2023-07-08T18:39:19.399Z,3.00
2023-07-08T18:41:52.970Z,3.40
2023-07-08T18:44:33.324Z,2.70
2023-07-08T18:47:07.463Z,2.60
2023-07-08T18:49:40.943Z,3.20
2023-07-08T18:52:17.371Z,3.80
2023-07-08T18:54:51.067Z,4.40
2023-07-08T18:57:25.082Z,3.10
2023-07-08T18:59:58.864Z,3.50
2023-07-08T19:02:39.218Z,3.70
2023-07-08T19:05:15.571Z,3.90
2023-07-08T19:07:49.695Z,3.00
2023-07-08T19:10:30.215Z,3.80
2023-07-08T19:13:03.875Z,3.70
2023-07-08T19:15:37.481Z,4.00
2023-07-08T19:18:12.574Z,4.30
2023-07-08T19:20:49.343Z,3.80
2023-07-08T19:23:27.279Z,4.30
2023-07-08T19:26:00.862Z,4.00
2023-07-08T19:28:35.007Z,4.10
2023-07-08T19:31:18.614Z,3.90
2023-07-08T19:33:53.834Z,3.90
2023-07-08T19:36:27.764Z,3.70
2023-07-08T19:39:01.626Z,3.00
2023-07-08T19:41:39.411Z,3.50
2023-07-08T19:44:19.731Z,4.00
2023-07-08T19:46:53.358Z,3.70
2023-07-08T19:49:26.829Z,3.70
2023-07-08T19:52:00.966Z,3.30
2023-07-08T19:54:34.391Z,4.00
2023-07-08T19:57:14.873Z,4.80
2023-07-08T19:59:48.800Z,5.40
2023-07-08T20:02:23.670Z,5.40
2023-07-08T20:04:57.316Z,5.50
2023-07-08T20:07:31.165Z,5.10
2023-07-08T20:10:04.919Z,5.40
2023-07-08T20:12:38.503Z,4.80
2023-07-08T20:15:14.561Z,5.60
2023-07-08T20:17:48.138Z,5.20
2023-07-08T20:20:28.172Z,5.30
2023-07-08T20:23:02.499Z,5.40
2023-07-08T20:25:35.934Z,5.40
2023-07-08T20:28:12.394Z,5.40
2023-07-08T20:30:45.979Z,5.30
2023-07-08T20:33:19.708Z,5.80
2023-07-08T20:35:53.222Z,5.70
2023-07-08T20:38:26.786Z,6.30
2023-07-08T20:41:00.367Z,5.50
2023-07-08T20:43:33.941Z,5.20
2023-07-08T20:46:13.576Z,5.10
2023-07-08T20:48:47.149Z,4.60
2023-07-08T20:51:20.737Z,4.90
2023-07-08T20:53:54.743Z,5.80
2023-07-08T20:56:32.611Z,7.20
2023-07-08T20:59:06.081Z,7.80
2023-07-08T21:01:39.483Z,7.30
2023-07-08T21:04:16.275Z,6.30
2023-07-08T21:06:49.663Z,7.00
2023-07-08T21:09:24.902Z,7.70
2023-07-08T21:11:58.215Z,7.20
2023-07-08T21:14:31.544Z,7.00
2023-07-08T21:17:05.958Z,6.60
2023-07-08T21:19:40.789Z,7.50
2023-07-08T21:22:16.056Z,7.70
2023-07-08T21:24:49.528Z,8.20
2023-07-08T21:27:32.219Z,7.80
2023-07-08T21:30:06.171Z,7.20
2023-07-08T21:32:39.626Z,7.30
2023-07-08T21:35:14.127Z,7.20
2023-07-08T21:37:53.322Z,9.50
2023-07-08T21:40:37.522Z,11.20
2023-07-08T21:43:16.326Z,9.70
2023-07-08T21:45:50.056Z,9.50
2023-07-08T21:48:24.282Z,9.70
2023-07-08T21:51:00.405Z,9.00
2023-07-08T21:53:37.358Z,8.50
2023-07-08T21:56:12.289Z,9.30
2023-07-08T21:58:45.800Z,9.20
2023-07-08T22:01:23.828Z,9.90
2023-07-08T22:03:59.221Z,8.80
2023-07-08T22:06:32.733Z,9.10
2023-07-08T22:09:06.537Z,9.90
2023-07-08T22:11:41.718Z,10.30
2023-07-08T22:14:16.210Z,10.00
2023-07-08T22:17:01.371Z,9.80
2023-07-08T22:19:39.076Z,10.90
2023-07-08T22:22:15.270Z,10.60
2023-07-08T22:24:48.831Z,10.30
2023-07-08T22:27:22.316Z,9.90
2023-07-08T22:29:55.686Z,10.40
2023-07-08T22:32:29.274Z,9.50
2023-07-08T22:35:02.771Z,9.20
2023-07-08T22:37:36.098Z,9.20
2023-07-08T22:40:11.718Z,8.10
2023-07-08T22:42:46.727Z,8.20
2023-07-08T22:45:20.855Z,9.50
2023-07-08T22:47:54.941Z,8.50
2023-07-08T22:50:38.105Z,7.30
2023-07-08T22:53:13.835Z,8.00
2023-07-08T22:55:48.348Z,8.40
2023-07-08T22:58:26.202Z,7.80
2023-07-08T23:01:00.067Z,7.90
2023-07-08T23:03:33.593Z,6.90
2023-07-08T23:06:07.601Z,6.70
2023-07-08T23:08:42.135Z,7.00
2023-07-08T23:11:16.996Z,7.20
2023-07-08T23:13:51.331Z,7.30
2023-07-08T23:16:33.327Z,7.30
2023-07-08T23:19:08.120Z,6.00
2023-07-08T23:21:42.132Z,6.20
2023-07-08T23:24:15.633Z,6.00
2023-07-08T23:26:49.191Z,7.20
2023-07-08T23:29:25.233Z,6.10
2023-07-08T23:31:59.917Z,7.30
2023-07-08T23:34:33.559Z,7.70
2023-07-08T23:37:07.742Z,7.60
2023-07-08T23:39:41.155Z,7.90
2023-07-08T23:42:18.224Z,7.00
2023-07-08T23:44:51.337Z,7.80
2023-07-08T23:47:27.816Z,7.90
2023-07-08T23:50:01.816Z,8.60
2023-07-08T23:52:35.003Z,7.10
2023-07-08T23:55:09.841Z,7.80
2023-07-08T23:57:43.737Z,7.60
